createdAt,value
2022-10-31T00:04:43.872Z,9.00
2022-10-31T00:09:47.825Z,9.80
2022-10-31T00:14:50.421Z,9.40
2022-10-31T00:19:53.084Z,9.00
2022-10-31T00:24:57.040Z,10.00
2022-10-31T00:29:59.647Z,9.20
2022-10-31T00:35:02.335Z,9.40
2022-10-31T00:40:07.700Z,8.00
2022-10-31T00:45:11.217Z,8.80
2022-10-31T00:50:13.890Z,10.00
2022-10-31T00:55:17.895Z,9.00
2022-10-31T01:00:20.927Z,8.60
2022-10-31T01:05:24.325Z,8.60
2022-10-31T01:10:28.364Z,8.20
2022-10-31T01:15:31.140Z,9.60
2022-10-31T01:20:34.975Z,9.00
2022-10-31T01:25:39.154Z,8.60
2022-10-31T01:30:41.778Z,8.80
2022-10-31T01:35:44.360Z,8.00
2022-10-31T01:40:48.311Z,8.80
2022-10-31T01:45:53.471Z,9.00
2022-10-31T01:50:56.152Z,8.40
2022-10-31T01:56:00.527Z,8.80
2022-10-31T02:01:06.719Z,8.60
2022-10-31T02:06:15.047Z,9.00
2022-10-31T02:11:18.984Z,8.20
2022-10-31T02:16:21.748Z,8.80
2022-10-31T02:21:27.000Z,8.00
2022-10-31T02:26:53.212Z,8.00
2022-10-31T02:31:59.704Z,9.00
2022-10-31T02:37:06.085Z,8.00
2022-10-31T02:42:10.043Z,8.00
2022-10-31T02:47:16.194Z,8.00
2022-10-31T02:52:20.215Z,7.20
2022-10-31T02:57:24.807Z,7.40
2022-10-31T03:02:35.472Z,8.00
2022-10-31T03:07:42.140Z,7.00
2022-10-31T03:12:49.591Z,8.00
2022-10-31T03:17:58.173Z,7.00
2022-10-31T03:23:01.045Z,8.00
2022-10-31T03:28:04.511Z,7.80
2022-10-31T03:33:12.555Z,6.60
2022-10-31T03:38:15.681Z,6.40
2022-10-31T03:43:23.986Z,7.40
2022-10-31T03:48:28.013Z,8.00
2022-10-31T03:53:33.068Z,6.60
2022-10-31T03:58:40.209Z,8.00
2022-10-31T04:03:44.446Z,6.60
2022-10-31T04:08:51.177Z,7.60
2022-10-31T04:13:54.887Z,7.00
2022-10-31T04:19:00.295Z,7.00
2022-10-31T04:24:02.956Z,7.00
2022-10-31T04:29:06.926Z,6.00
2022-10-31T04:34:11.018Z,7.00
2022-10-31T04:39:13.686Z,6.00
2022-10-31T04:44:23.205Z,5.80
2022-10-31T04:49:29.829Z,6.40
2022-10-31T04:54:32.513Z,6.60
2022-10-31T04:59:53.756Z,6.20
2022-10-31T05:04:58.059Z,6.40
2022-10-31T05:10:00.718Z,6.00
2022-10-31T05:15:03.377Z,6.00
2022-10-31T05:20:28.304Z,6.00
2022-10-31T05:26:03.400Z,6.00
2022-10-31T05:31:06.300Z,5.80
2022-10-31T05:36:10.630Z,6.00
2022-10-31T05:41:18.755Z,7.80
2022-10-31T05:46:23.597Z,6.00
2022-10-31T05:51:59.953Z,5.80
2022-10-31T05:57:11.659Z,4.00
2022-10-31T06:02:14.388Z,6.00
2022-10-31T06:07:36.914Z,6.20
2022-10-31T06:12:41.587Z,5.60
2022-10-31T06:18:00.373Z,7.00
2022-10-31T06:23:05.721Z,4.20
2022-10-31T06:28:09.788Z,6.40
2022-10-31T06:33:22.958Z,6.40
2022-10-31T06:38:33.662Z,5.40
2022-10-31T06:43:49.266Z,6.60
2022-10-31T06:49:24.125Z,5.00
2022-10-31T06:54:30.415Z,6.60
2022-10-31T06:59:34.512Z,6.00
2022-10-31T07:05:01.284Z,6.00
2022-10-31T07:10:04.535Z,6.80
2022-10-31T07:15:24.715Z,7.00
2022-10-31T07:20:29.220Z,6.20
2022-10-31T07:25:32.293Z,6.80
2022-10-31T07:30:43.742Z,6.20
2022-10-31T07:35:46.853Z,7.00
2022-10-31T07:40:54.953Z,7.00
2022-10-31T07:46:00.465Z,6.00
2022-10-31T07:51:32.195Z,6.60
2022-10-31T07:57:09.716Z,6.00
2022-10-31T08:02:15.321Z,6.00
2022-10-31T08:07:38.160Z,6.60
2022-10-31T08:12:43.430Z,6.20
2022-10-31T08:17:49.845Z,8.00
2022-10-31T08:22:57.657Z,12.00
2022-10-31T08:28:00.819Z,11.00
2022-10-31T08:33:05.849Z,11.00
2022-10-31T08:38:31.738Z,12.80
2022-10-31T08:43:34.461Z,11.20
2022-10-31T08:48:38.515Z,8.00
2022-10-31T08:53:41.385Z,8.20
2022-10-31T08:59:07.038Z,8.00
2022-10-31T09:04:24.287Z,9.60
2022-10-31T09:09:26.971Z,7.60
2022-10-31T09:14:29.691Z,7.80
2022-10-31T09:19:52.375Z,8.20
2022-10-31T09:24:55.139Z,8.60
2022-10-31T09:29:58.339Z,8.00
2022-10-31T09:35:02.395Z,8.00
2022-10-31T09:40:06.023Z,9.20
2022-10-31T09:45:17.715Z,8.00
2022-10-31T09:50:23.732Z,7.40
2022-10-31T09:55:29.742Z,8.00
2022-10-31T10:00:34.207Z,8.00
2022-10-31T10:05:40.990Z,8.00
2022-10-31T10:10:51.696Z,8.20
2022-10-31T10:16:14.495Z,7.80
2022-10-31T10:21:25.022Z,7.40
2022-10-31T10:31:41.607Z,7.20
2022-10-31T10:36:46.720Z,8.40
2022-10-31T10:42:04.278Z,8.60
2022-10-31T10:47:24.789Z,8.00
2022-10-31T10:52:50.529Z,9.40
2022-10-31T10:57:57.805Z,17.40
2022-10-31T11:03:01.098Z,20.67
2022-10-31T11:08:05.944Z,22.25
2022-10-31T11:13:21.666Z,20.25
2022-10-31T11:23:35.000Z,21.75
2022-10-31T11:28:37.801Z,21.75
2022-10-31T11:33:42.597Z,20.75
2022-10-31T11:38:46.717Z,21.50
2022-10-31T11:43:51.489Z,21.50
2022-10-31T11:48:55.456Z,19.50
2022-10-31T11:54:02.775Z,23.50
2022-10-31T11:59:07.111Z,23.00
2022-10-31T12:04:12.430Z,22.75
2022-10-31T12:09:21.338Z,20.00
2022-10-31T12:14:30.352Z,25.75
2022-10-31T12:19:38.160Z,23.25
2022-10-31T12:24:53.149Z,23.75
2022-10-31T12:30:05.201Z,21.25
2022-10-31T12:35:21.999Z,24.00
2022-10-31T12:40:34.026Z,23.50
2022-10-31T12:45:42.499Z,22.25
2022-10-31T12:50:52.803Z,22.75
2022-10-31T12:56:09.798Z,21.25
2022-10-31T13:01:14.488Z,17.00
2022-10-31T13:06:20.444Z,17.00
2022-10-31T13:11:26.985Z,16.40
2022-10-31T13:16:32.842Z,15.00
2022-10-31T13:21:38.401Z,15.00
2022-10-31T13:26:44.136Z,17.75
2022-10-31T13:31:47.062Z,16.00
2022-10-31T13:36:54.081Z,15.40
2022-10-31T13:42:01.804Z,16.40
2022-10-31T13:47:04.680Z,14.25
2022-10-31T13:52:14.344Z,15.20
2022-10-31T13:57:22.129Z,14.20
2022-10-31T14:02:28.563Z,15.00
2022-10-31T14:07:31.475Z,15.00
2022-10-31T14:12:36.511Z,14.20
2022-10-31T14:17:41.742Z,14.20
2022-10-31T14:22:44.480Z,15.60
2022-10-31T14:27:48.936Z,14.40
2022-10-31T14:32:53.683Z,12.80
2022-10-31T14:38:35.116Z,15.00
2022-10-31T14:43:49.206Z,13.60
2022-10-31T14:49:16.031Z,14.00
2022-10-31T14:54:21.678Z,14.00
2022-10-31T14:59:26.461Z,13.80
2022-10-31T15:04:30.236Z,14.00
2022-10-31T15:09:35.088Z,14.00
2022-10-31T15:14:39.131Z,14.40
2022-10-31T15:19:42.155Z,13.00
2022-10-31T15:24:45.021Z,12.80
2022-10-31T15:29:53.319Z,14.20
2022-10-31T15:34:56.918Z,13.00
2022-10-31T15:40:08.579Z,14.00
2022-10-31T15:45:20.797Z,12.80
2022-10-31T15:50:32.919Z,12.60
2022-10-31T15:55:40.151Z,11.80
2022-10-31T16:00:44.793Z,13.40
2022-10-31T16:05:48.498Z,11.00
2022-10-31T16:10:51.517Z,11.00
2022-10-31T16:16:21.282Z,10.60
2022-10-31T16:21:26.504Z,11.60
2022-10-31T16:26:29.389Z,10.20
2022-10-31T16:31:38.897Z,13.80
2022-10-31T16:36:41.698Z,12.80
2022-10-31T16:41:44.948Z,10.40
2022-10-31T16:46:49.154Z,12.20
2022-10-31T16:51:51.801Z,11.80
2022-10-31T16:56:54.515Z,11.00
2022-10-31T17:01:58.687Z,11.20
2022-10-31T17:07:01.440Z,11.60
2022-10-31T17:12:04.223Z,10.00
2022-10-31T17:17:09.314Z,12.40
2022-10-31T17:22:12.632Z,12.00
2022-10-31T17:27:15.489Z,12.40
2022-10-31T17:32:19.621Z,12.60
2022-10-31T17:37:22.290Z,10.00
2022-10-31T17:42:25.052Z,10.00
2022-10-31T17:47:29.277Z,10.00
2022-10-31T17:52:31.927Z,10.80
2022-10-31T17:57:35.714Z,12.00
2022-10-31T18:02:39.935Z,10.60
2022-10-31T18:07:43.026Z,11.00
2022-10-31T18:12:45.930Z,10.00
2022-10-31T18:17:50.077Z,11.00
2022-10-31T18:22:52.741Z,10.00
2022-10-31T18:27:55.559Z,10.00
2022-10-31T18:32:59.666Z,10.20
2022-10-31T18:38:03.387Z,10.40
2022-10-31T18:43:07.123Z,9.20
2022-10-31T18:48:13.583Z,9.60
2022-10-31T18:53:16.316Z,10.00
2022-10-31T18:58:19.175Z,9.00
2022-10-31T19:03:26.197Z,10.60
2022-10-31T19:08:29.171Z,10.00
2022-10-31T19:13:33.290Z,10.00
2022-10-31T19:18:37.509Z,10.40
2022-10-31T19:23:40.453Z,11.20
2022-10-31T19:28:43.491Z,11.80
2022-10-31T19:33:47.619Z,11.00
2022-10-31T19:38:51.637Z,11.00
2022-10-31T19:43:54.470Z,11.80
2022-10-31T19:48:58.734Z,12.00
2022-10-31T19:54:01.609Z,10.20
2022-10-31T19:59:04.682Z,11.00
2022-10-31T20:04:08.716Z,11.00
2022-10-31T20:09:13.574Z,11.20
2022-10-31T20:14:17.505Z,10.00
2022-10-31T20:19:22.117Z,10.40
2022-10-31T20:24:25.078Z,11.40
2022-10-31T20:29:27.818Z,13.40
2022-10-31T20:34:31.955Z,11.40
2022-10-31T20:39:36.595Z,11.00
2022-10-31T20:44:39.382Z,10.80
2022-10-31T20:49:43.399Z,10.00
2022-10-31T20:54:46.227Z,12.40
2022-10-31T20:59:49.960Z,10.40
2022-10-31T21:04:54.074Z,9.60
2022-10-31T21:09:56.806Z,11.00
2022-10-31T21:14:59.770Z,11.20
2022-10-31T21:20:04.527Z,11.60
2022-10-31T21:25:07.802Z,11.00
2022-10-31T21:30:11.036Z,10.80
2022-10-31T21:35:15.137Z,11.00
2022-10-31T21:40:17.904Z,11.00
2022-10-31T21:45:21.277Z,10.80
2022-10-31T21:50:25.272Z,10.60
2022-10-31T21:55:27.985Z,10.60
2022-10-31T22:00:30.725Z,11.00
2022-10-31T22:05:36.009Z,10.00
2022-10-31T22:10:38.712Z,11.00
2022-10-31T22:15:41.417Z,10.00
2022-10-31T22:20:45.567Z,9.40
2022-10-31T22:25:48.371Z,10.00
2022-10-31T22:30:51.106Z,10.00
2022-10-31T22:35:55.380Z,11.00
2022-10-31T22:40:58.753Z,10.00
2022-10-31T22:46:03.583Z,9.20
2022-10-31T22:51:07.818Z,9.20
2022-10-31T22:56:12.016Z,9.00
2022-10-31T23:01:16.066Z,8.60
2022-10-31T23:06:21.430Z,9.40
2022-10-31T23:11:25.079Z,9.20
2022-10-31T23:16:27.736Z,9.00
2022-10-31T23:21:54.391Z,9.20
2022-10-31T23:27:10.419Z,10.00
2022-10-31T23:32:16.507Z,10.20
2022-10-31T23:37:21.345Z,9.80
2022-10-31T23:42:24.478Z,9.00
2022-10-31T23:47:27.173Z,9.00
2022-10-31T23:52:31.170Z,8.60
2022-10-31T23:57:34.013Z,9.00
